sensor_id;sensor_type;location;lat;lon;timestamp;P1;durP1;ratioP1;P2;durP2;ratioP2
72404;SDS011;60395;52.020;113.548;2023-10-19T00:00:49;8.80;;;2.72;;
72404;SDS011;60395;52.020;113.548;2023-10-19T00:03:53;12.80;;;5.32;;
72404;SDS011;60395;52.020;113.548;2023-10-19T00:06:58;34.35;;;12.50;;
72404;SDS011;60395;52.020;113.548;2023-10-19T00:10:01;34.13;;;12.95;;
72404;SDS011;60395;52.020;113.548;2023-10-19T00:16:11;17.05;;;5.38;;
72404;SDS011;60395;52.020;113.548;2023-10-19T00:19:16;6.00;;;2.10;;
72404;SDS011;60395;52.020;113.548;2023-10-19T00:22:22;5.88;;;2.40;;
72404;SDS011;60395;52.020;113.548;2023-10-19T00:25:26;16.35;;;5.57;;
72404;SDS011;60395;52.020;113.548;2023-10-19T00:28:30;18.10;;;7.53;;
72404;SDS011;60395;52.020;113.548;2023-10-19T00:31:38;16.55;;;7.18;;
72404;SDS011;60395;52.020;113.548;2023-10-19T00:34:43;38.72;;;14.73;;
72404;SDS011;60395;52.020;113.548;2023-10-19T00:37:55;15.00;;;4.93;;
72404;SDS011;60395;52.020;113.548;2023-10-19T00:41:15;18.48;;;6.53;;
72404;SDS011;60395;52.020;113.548;2023-10-19T00:44:32;14.90;;;5.30;;
72404;SDS011;60395;52.020;113.548;2023-10-19T00:47:44;7.70;;;3.25;;
72404;SDS011;60395;52.020;113.548;2023-10-19T00:50:49;7.07;;;2.70;;
72404;SDS011;60395;52.020;113.548;2023-10-19T00:53:57;8.05;;;3.30;;
72404;SDS011;60395;52.020;113.548;2023-10-19T00:57:10;4.23;;;2.07;;
72404;SDS011;60395;52.020;113.548;2023-10-19T01:00:14;4.27;;;1.63;;
72404;SDS011;60395;52.020;113.548;2023-10-19T01:03:44;3.95;;;2.05;;
72404;SDS011;60395;52.020;113.548;2023-10-19T01:06:48;3.47;;;1.88;;
72404;SDS011;60395;52.020;113.548;2023-10-19T01:10:15;3.67;;;1.88;;
72404;SDS011;60395;52.020;113.548;2023-10-19T01:13:22;3.45;;;1.58;;
72404;SDS011;60395;52.020;113.548;2023-10-19T01:16:37;3.28;;;1.70;;
72404;SDS011;60395;52.020;113.548;2023-10-19T01:19:40;3.63;;;1.67;;
72404;SDS011;60395;52.020;113.548;2023-10-19T01:22:53;5.85;;;2.60;;
72404;SDS011;60395;52.020;113.548;2023-10-19T01:26:13;3.75;;;1.85;;
72404;SDS011;60395;52.020;113.548;2023-10-19T01:29:21;5.05;;;2.30;;
72404;SDS011;60395;52.020;113.548;2023-10-19T01:32:29;8.27;;;2.70;;
72404;SDS011;60395;52.020;113.548;2023-10-19T01:35:33;7.78;;;3.00;;
72404;SDS011;60395;52.020;113.548;2023-10-19T01:38:55;6.35;;;2.70;;
72404;SDS011;60395;52.020;113.548;2023-10-19T01:42:03;6.88;;;2.70;;
72404;SDS011;60395;52.020;113.548;2023-10-19T01:45:07;11.25;;;3.90;;
72404;SDS011;60395;52.020;113.548;2023-10-19T01:48:14;5.90;;;2.95;;
72404;SDS011;60395;52.020;113.548;2023-10-19T01:54:23;6.30;;;2.80;;
72404;SDS011;60395;52.020;113.548;2023-10-19T01:57:27;8.23;;;2.58;;
72404;SDS011;60395;52.020;113.548;2023-10-19T02:00:31;5.43;;;2.33;;
72404;SDS011;60395;52.020;113.548;2023-10-19T02:03:34;5.72;;;2.20;;
72404;SDS011;60395;52.020;113.548;2023-10-19T02:06:39;5.80;;;2.45;;
72404;SDS011;60395;52.020;113.548;2023-10-19T02:09:43;4.88;;;2.15;;
72404;SDS011;60395;52.020;113.548;2023-10-19T02:12:46;4.60;;;1.40;;
72404;SDS011;60395;52.020;113.548;2023-10-19T02:15:51;13.13;;;6.68;;
72404;SDS011;60395;52.020;113.548;2023-10-19T02:18:54;5.57;;;2.80;;
72404;SDS011;60395;52.020;113.548;2023-10-19T02:21:59;6.97;;;2.87;;
72404;SDS011;60395;52.020;113.548;2023-10-19T02:25:11;5.30;;;2.50;;
72404;SDS011;60395;52.020;113.548;2023-10-19T02:28:16;5.57;;;2.40;;
72404;SDS011;60395;52.020;113.548;2023-10-19T02:31:19;7.18;;;3.13;;
72404;SDS011;60395;52.020;113.548;2023-10-19T02:34:27;2.88;;;1.60;;
72404;SDS011;60395;52.020;113.548;2023-10-19T02:37:32;1.02;;;0.45;;
72404;SDS011;60395;52.020;113.548;2023-10-19T02:40:35;3.97;;;0.50;;
72404;SDS011;60395;52.020;113.548;2023-10-19T02:46:47;0.85;;;0.40;;
72404;SDS011;60395;52.020;113.548;2023-10-19T02:49:53;1.00;;;0.55;;
72404;SDS011;60395;52.020;113.548;2023-10-19T02:52:58;2.38;;;1.20;;
72404;SDS011;60395;52.020;113.548;2023-10-19T02:56:08;3.88;;;0.80;;
72404;SDS011;60395;52.020;113.548;2023-10-19T02:59:13;2.53;;;0.85;;
72404;SDS011;60395;52.020;113.548;2023-10-19T03:05:22;1.73;;;0.65;;
72404;SDS011;60395;52.020;113.548;2023-10-19T03:08:29;5.47;;;1.23;;
72404;SDS011;60395;52.020;113.548;2023-10-19T03:11:33;9.15;;;0.90;;
72404;SDS011;60395;52.020;113.548;2023-10-19T03:14:37;4.32;;;1.65;;
72404;SDS011;60395;52.020;113.548;2023-10-19T03:17:41;1.40;;;0.70;;
72404;SDS011;60395;52.020;113.548;2023-10-19T03:20:45;2.33;;;0.65;;
72404;SDS011;60395;52.020;113.548;2023-10-19T03:23:48;2.15;;;1.02;;
72404;SDS011;60395;52.020;113.548;2023-10-19T03:26:52;2.63;;;0.90;;
72404;SDS011;60395;52.020;113.548;2023-10-19T03:29:59;2.67;;;1.17;;
72404;SDS011;60395;52.020;113.548;2023-10-19T03:33:02;3.67;;;1.25;;
72404;SDS011;60395;52.020;113.548;2023-10-19T03:39:16;3.50;;;0.68;;
72404;SDS011;60395;52.020;113.548;2023-10-19T03:42:21;1.20;;;0.70;;
72404;SDS011;60395;52.020;113.548;2023-10-19T03:45:28;4.93;;;1.60;;
72404;SDS011;60395;52.020;113.548;2023-10-19T03:48:36;0.95;;;0.40;;
72404;SDS011;60395;52.020;113.548;2023-10-19T03:51:41;3.92;;;1.00;;
72404;SDS011;60395;52.020;113.548;2023-10-19T03:55:23;3.38;;;1.63;;
72404;SDS011;60395;52.020;113.548;2023-10-19T04:01:32;5.63;;;2.00;;
72404;SDS011;60395;52.020;113.548;2023-10-19T04:04:36;4.82;;;1.10;;
72404;SDS011;60395;52.020;113.548;2023-10-19T04:07:42;1.40;;;0.90;;
72404;SDS011;60395;52.020;113.548;2023-10-19T04:10:46;11.70;;;4.25;;
72404;SDS011;60395;52.020;113.548;2023-10-19T04:14:08;5.88;;;2.40;;
72404;SDS011;60395;52.020;113.548;2023-10-19T04:17:12;4.28;;;1.13;;
72404;SDS011;60395;52.020;113.548;2023-10-19T04:20:16;12.02;;;1.95;;
72404;SDS011;60395;52.020;113.548;2023-10-19T04:23:21;3.10;;;1.35;;
72404;SDS011;60395;52.020;113.548;2023-10-19T04:26:29;2.78;;;1.00;;
72404;SDS011;60395;52.020;113.548;2023-10-19T04:29:39;4.40;;;0.80;;
72404;SDS011;60395;52.020;113.548;2023-10-19T04:32:47;3.50;;;1.63;;
72404;SDS011;60395;52.020;113.548;2023-10-19T04:35:55;2.58;;;0.77;;
72404;SDS011;60395;52.020;113.548;2023-10-19T04:39:05;7.65;;;2.55;;
72404;SDS011;60395;52.020;113.548;2023-10-19T04:42:16;2.08;;;0.90;;
72404;SDS011;60395;52.020;113.548;2023-10-19T04:45:21;2.65;;;1.00;;
72404;SDS011;60395;52.020;113.548;2023-10-19T04:48:27;1.48;;;0.82;;
72404;SDS011;60395;52.020;113.548;2023-10-19T04:51:35;1.52;;;0.75;;
72404;SDS011;60395;52.020;113.548;2023-10-19T04:54:41;2.72;;;1.02;;
72404;SDS011;60395;52.020;113.548;2023-10-19T04:57:44;1.85;;;1.10;;
72404;SDS011;60395;52.020;113.548;2023-10-19T05:00:47;5.82;;;1.35;;
72404;SDS011;60395;52.020;113.548;2023-10-19T05:03:51;3.97;;;1.27;;
72404;SDS011;60395;52.020;113.548;2023-10-19T05:06:55;5.63;;;1.50;;
72404;SDS011;60395;52.020;113.548;2023-10-19T05:09:58;15.70;;;6.55;;
72404;SDS011;60395;52.020;113.548;2023-10-19T05:13:02;7.18;;;2.88;;
72404;SDS011;60395;52.020;113.548;2023-10-19T05:16:06;5.60;;;1.63;;
72404;SDS011;60395;52.020;113.548;2023-10-19T05:19:10;8.45;;;3.42;;
72404;SDS011;60395;52.020;113.548;2023-10-19T05:22:13;6.10;;;2.10;;
72404;SDS011;60395;52.020;113.548;2023-10-19T05:25:17;3.20;;;1.73;;
72404;SDS011;60395;52.020;113.548;2023-10-19T05:28:20;2.50;;;1.40;;
72404;SDS011;60395;52.020;113.548;2023-10-19T05:31:24;2.90;;;1.40;;
72404;SDS011;60395;52.020;113.548;2023-10-19T05:34:27;3.50;;;1.30;;
72404;SDS011;60395;52.020;113.548;2023-10-19T05:37:32;3.63;;;1.02;;
72404;SDS011;60395;52.020;113.548;2023-10-19T05:40:36;4.10;;;0.95;;
72404;SDS011;60395;52.020;113.548;2023-10-19T05:43:41;1.90;;;0.93;;
72404;SDS011;60395;52.020;113.548;2023-10-19T05:46:45;1.45;;;1.02;;
72404;SDS011;60395;52.020;113.548;2023-10-19T05:49:49;2.65;;;1.60;;
72404;SDS011;60395;52.020;113.548;2023-10-19T05:52:52;4.78;;;1.70;;
72404;SDS011;60395;52.020;113.548;2023-10-19T05:55:58;3.40;;;1.52;;
72404;SDS011;60395;52.020;113.548;2023-10-19T05:59:01;4.97;;;1.75;;
72404;SDS011;60395;52.020;113.548;2023-10-19T06:02:05;7.90;;;1.48;;
72404;SDS011;60395;52.020;113.548;2023-10-19T06:08:13;4.25;;;1.25;;
72404;SDS011;60395;52.020;113.548;2023-10-19T06:11:16;2.30;;;1.20;;
72404;SDS011;60395;52.020;113.548;2023-10-19T06:14:20;4.50;;;1.40;;
72404;SDS011;60395;52.020;113.548;2023-10-19T06:17:24;3.90;;;1.10;;
72404;SDS011;60395;52.020;113.548;2023-10-19T06:20:27;3.85;;;1.58;;
72404;SDS011;60395;52.020;113.548;2023-10-19T06:23:31;4.75;;;1.40;;
72404;SDS011;60395;52.020;113.548;2023-10-19T06:26:34;3.92;;;1.23;;
72404;SDS011;60395;52.020;113.548;2023-10-19T06:29:38;2.35;;;1.20;;
72404;SDS011;60395;52.020;113.548;2023-10-19T06:32:41;4.15;;;1.92;;
72404;SDS011;60395;52.020;113.548;2023-10-19T06:35:45;2.00;;;0.90;;
72404;SDS011;60395;52.020;113.548;2023-10-19T06:38:48;2.78;;;1.02;;
72404;SDS011;60395;52.020;113.548;2023-10-19T06:44:56;2.08;;;1.08;;
72404;SDS011;60395;52.020;113.548;2023-10-19T06:48:00;4.18;;;1.52;;
72404;SDS011;60395;52.020;113.548;2023-10-19T06:51:06;3.55;;;1.15;;
72404;SDS011;60395;52.020;113.548;2023-10-19T06:54:09;8.35;;;1.10;;
72404;SDS011;60395;52.020;113.548;2023-10-19T06:57:15;5.40;;;1.10;;
72404;SDS011;60395;52.020;113.548;2023-10-19T07:00:20;5.65;;;0.90;;
72404;SDS011;60395;52.020;113.548;2023-10-19T07:03:24;5.93;;;1.40;;
72404;SDS011;60395;52.020;113.548;2023-10-19T07:06:31;6.70;;;1.48;;
72404;SDS011;60395;52.020;113.548;2023-10-19T07:09:34;1.88;;;0.90;;
72404;SDS011;60395;52.020;113.548;2023-10-19T07:12:41;2.88;;;1.42;;
72404;SDS011;60395;52.020;113.548;2023-10-19T07:15:46;4.10;;;1.13;;
72404;SDS011;60395;52.020;113.548;2023-10-19T07:18:49;3.60;;;1.00;;
72404;SDS011;60395;52.020;113.548;2023-10-19T07:21:53;9.00;;;5.07;;
72404;SDS011;60395;52.020;113.548;2023-10-19T07:25:00;7.25;;;1.38;;
72404;SDS011;60395;52.020;113.548;2023-10-19T07:28:04;3.15;;;1.80;;
72404;SDS011;60395;52.020;113.548;2023-10-19T07:31:09;2.03;;;1.00;;
72404;SDS011;60395;52.020;113.548;2023-10-19T07:34:18;3.35;;;1.10;;
72404;SDS011;60395;52.020;113.548;2023-10-19T07:37:21;2.72;;;1.52;;
72404;SDS011;60395;52.020;113.548;2023-10-19T07:40:25;7.00;;;1.55;;
72404;SDS011;60395;52.020;113.548;2023-10-19T07:43:30;4.28;;;1.13;;
72404;SDS011;60395;52.020;113.548;2023-10-19T07:46:33;3.30;;;1.50;;
72404;SDS011;60395;52.020;113.548;2023-10-19T07:49:37;3.92;;;1.38;;
72404;SDS011;60395;52.020;113.548;2023-10-19T07:52:44;5.00;;;0.95;;
72404;SDS011;60395;52.020;113.548;2023-10-19T07:55:52;6.63;;;1.40;;
72404;SDS011;60395;52.020;113.548;2023-10-19T07:58:55;4.78;;;1.30;;
72404;SDS011;60395;52.020;113.548;2023-10-19T08:01:59;13.93;;;2.58;;
72404;SDS011;60395;52.020;113.548;2023-10-19T08:05:07;12.10;;;2.50;;
72404;SDS011;60395;52.020;113.548;2023-10-19T08:08:14;9.52;;;2.40;;
72404;SDS011;60395;52.020;113.548;2023-10-19T08:11:17;10.27;;;2.30;;
72404;SDS011;60395;52.020;113.548;2023-10-19T08:14:24;8.02;;;2.17;;
72404;SDS011;60395;52.020;113.548;2023-10-19T08:17:28;5.68;;;1.88;;
72404;SDS011;60395;52.020;113.548;2023-10-19T08:20:32;2.50;;;1.00;;
72404;SDS011;60395;52.020;113.548;2023-10-19T08:23:39;3.67;;;1.90;;
72404;SDS011;60395;52.020;113.548;2023-10-19T08:26:46;9.48;;;2.17;;
72404;SDS011;60395;52.020;113.548;2023-10-19T08:29:49;4.63;;;1.70;;
72404;SDS011;60395;52.020;113.548;2023-10-19T08:32:53;8.23;;;1.92;;
72404;SDS011;60395;52.020;113.548;2023-10-19T08:35:56;12.65;;;5.80;;
72404;SDS011;60395;52.020;113.548;2023-10-19T08:39:00;6.85;;;2.78;;
72404;SDS011;60395;52.020;113.548;2023-10-19T08:42:08;2.78;;;1.48;;
72404;SDS011;60395;52.020;113.548;2023-10-19T08:48:16;8.85;;;2.10;;
72404;SDS011;60395;52.020;113.548;2023-10-19T08:51:20;4.10;;;2.33;;
72404;SDS011;60395;52.020;113.548;2023-10-19T08:54:23;9.63;;;2.72;;
72404;SDS011;60395;52.020;113.548;2023-10-19T08:57:28;12.90;;;3.75;;
72404;SDS011;60395;52.020;113.548;2023-10-19T09:00:45;15.93;;;4.20;;
72404;SDS011;60395;52.020;113.548;2023-10-19T09:07:03;17.80;;;4.60;;
72404;SDS011;60395;52.020;113.548;2023-10-19T09:10:11;17.17;;;5.47;;
72404;SDS011;60395;52.020;113.548;2023-10-19T09:13:18;17.55;;;5.40;;
72404;SDS011;60395;52.020;113.548;2023-10-19T09:16:22;20.38;;;7.00;;
72404;SDS011;60395;52.020;113.548;2023-10-19T09:19:47;16.05;;;6.57;;
72404;SDS011;60395;52.020;113.548;2023-10-19T09:22:54;16.83;;;6.00;;
72404;SDS011;60395;52.020;113.548;2023-10-19T09:25:58;31.50;;;6.63;;
72404;SDS011;60395;52.020;113.548;2023-10-19T09:29:06;18.08;;;6.05;;
72404;SDS011;60395;52.020;113.548;2023-10-19T09:32:10;17.52;;;5.90;;
72404;SDS011;60395;52.020;113.548;2023-10-19T09:35:17;22.30;;;5.97;;
72404;SDS011;60395;52.020;113.548;2023-10-19T09:38:22;18.40;;;5.93;;
72404;SDS011;60395;52.020;113.548;2023-10-19T09:41:27;15.25;;;6.25;;
72404;SDS011;60395;52.020;113.548;2023-10-19T09:44:33;23.38;;;7.68;;
72404;SDS011;60395;52.020;113.548;2023-10-19T09:47:50;23.55;;;6.38;;
72404;SDS011;60395;52.020;113.548;2023-10-19T09:50:54;14.82;;;6.10;;
72404;SDS011;60395;52.020;113.548;2023-10-19T09:54:11;17.02;;;7.80;;
72404;SDS011;60395;52.020;113.548;2023-10-19T09:57:26;14.98;;;6.38;;
72404;SDS011;60395;52.020;113.548;2023-10-19T10:00:35;9.07;;;5.15;;
72404;SDS011;60395;52.020;113.548;2023-10-19T10:03:42;17.90;;;5.43;;
72404;SDS011;60395;52.020;113.548;2023-10-19T10:09:59;15.15;;;6.03;;
72404;SDS011;60395;52.020;113.548;2023-10-19T10:16:37;24.17;;;9.10;;
72404;SDS011;60395;52.020;113.548;2023-10-19T10:19:43;17.00;;;7.97;;
72404;SDS011;60395;52.020;113.548;2023-10-19T10:26:57;15.20;;;6.93;;
72404;SDS011;60395;52.020;113.548;2023-10-19T10:30:04;15.00;;;6.78;;
72404;SDS011;60395;52.020;113.548;2023-10-19T10:33:13;16.83;;;6.97;;
72404;SDS011;60395;52.020;113.548;2023-10-19T10:36:59;15.55;;;7.43;;
72404;SDS011;60395;52.020;113.548;2023-10-19T10:40:08;20.95;;;8.05;;
72404;SDS011;60395;52.020;113.548;2023-10-19T10:43:11;16.60;;;7.65;;
72404;SDS011;60395;52.020;113.548;2023-10-19T10:46:15;26.60;;;7.30;;
72404;SDS011;60395;52.020;113.548;2023-10-19T10:49:19;13.85;;;5.70;;
72404;SDS011;60395;52.020;113.548;2023-10-19T10:52:56;9.07;;;5.00;;
72404;SDS011;60395;52.020;113.548;2023-10-19T10:56:02;14.85;;;6.22;;
72404;SDS011;60395;52.020;113.548;2023-10-19T10:59:12;17.15;;;6.97;;
72404;SDS011;60395;52.020;113.548;2023-10-19T11:02:16;37.78;;;18.58;;
72404;SDS011;60395;52.020;113.548;2023-10-19T11:05:24;18.45;;;6.45;;
72404;SDS011;60395;52.020;113.548;2023-10-19T11:08:28;13.93;;;5.95;;
72404;SDS011;60395;52.020;113.548;2023-10-19T11:11:36;15.13;;;7.22;;
72404;SDS011;60395;52.020;113.548;2023-10-19T11:14:55;15.45;;;5.68;;
72404;SDS011;60395;52.020;113.548;2023-10-19T11:18:03;12.75;;;5.07;;
72404;SDS011;60395;52.020;113.548;2023-10-19T11:21:11;16.45;;;6.95;;
72404;SDS011;60395;52.020;113.548;2023-10-19T11:24:26;12.70;;;6.18;;
72404;SDS011;60395;52.020;113.548;2023-10-19T11:27:33;16.55;;;6.88;;
72404;SDS011;60395;52.020;113.548;2023-10-19T11:30:41;17.77;;;6.90;;
72404;SDS011;60395;52.020;113.548;2023-10-19T11:33:48;15.70;;;6.90;;
72404;SDS011;60395;52.020;113.548;2023-10-19T11:36:56;20.45;;;6.95;;
72404;SDS011;60395;52.020;113.548;2023-10-19T11:40:02;15.38;;;6.93;;
72404;SDS011;60395;52.020;113.548;2023-10-19T11:43:07;19.50;;;8.20;;
72404;SDS011;60395;52.020;113.548;2023-10-19T11:46:10;16.65;;;7.45;;
72404;SDS011;60395;52.020;113.548;2023-10-19T11:49:32;16.80;;;8.10;;
72404;SDS011;60395;52.020;113.548;2023-10-19T11:52:36;15.83;;;7.70;;
72404;SDS011;60395;52.020;113.548;2023-10-19T11:55:39;18.15;;;7.68;;
72404;SDS011;60395;52.020;113.548;2023-10-19T11:58:44;20.75;;;8.95;;
72404;SDS011;60395;52.020;113.548;2023-10-19T12:01:49;18.63;;;8.27;;
72404;SDS011;60395;52.020;113.548;2023-10-19T12:04:53;15.38;;;4.90;;
72404;SDS011;60395;52.020;113.548;2023-10-19T12:07:57;17.95;;;8.52;;
72404;SDS011;60395;52.020;113.548;2023-10-19T12:11:00;11.40;;;4.68;;
72404;SDS011;60395;52.020;113.548;2023-10-19T12:14:07;9.25;;;3.78;;
72404;SDS011;60395;52.020;113.548;2023-10-19T12:17:14;6.70;;;3.53;;
72404;SDS011;60395;52.020;113.548;2023-10-19T12:20:17;6.82;;;2.97;;
72404;SDS011;60395;52.020;113.548;2023-10-19T12:23:25;8.68;;;3.10;;
72404;SDS011;60395;52.020;113.548;2023-10-19T12:26:34;7.15;;;3.00;;
72404;SDS011;60395;52.020;113.548;2023-10-19T12:29:37;14.93;;;2.72;;
72404;SDS011;60395;52.020;113.548;2023-10-19T12:32:40;6.15;;;2.90;;
72404;SDS011;60395;52.020;113.548;2023-10-19T12:35:43;7.68;;;3.00;;
72404;SDS011;60395;52.020;113.548;2023-10-19T12:38:47;5.97;;;2.72;;
72404;SDS011;60395;52.020;113.548;2023-10-19T12:41:52;7.03;;;2.83;;
72404;SDS011;60395;52.020;113.548;2023-10-19T12:44:55;7.93;;;3.00;;
72404;SDS011;60395;52.020;113.548;2023-10-19T12:47:58;10.15;;;3.13;;
72404;SDS011;60395;52.020;113.548;2023-10-19T12:51:02;7.85;;;3.50;;
72404;SDS011;60395;52.020;113.548;2023-10-19T12:54:06;11.32;;;3.92;;
72404;SDS011;60395;52.020;113.548;2023-10-19T12:57:12;11.23;;;4.05;;
72404;SDS011;60395;52.020;113.548;2023-10-19T13:00:16;8.48;;;3.60;;
72404;SDS011;60395;52.020;113.548;2023-10-19T13:03:35;13.13;;;4.38;;
72404;SDS011;60395;52.020;113.548;2023-10-19T13:06:44;6.82;;;3.28;;
72404;SDS011;60395;52.020;113.548;2023-10-19T13:09:50;9.00;;;4.38;;
72404;SDS011;60395;52.020;113.548;2023-10-19T13:12:54;9.23;;;3.97;;
72404;SDS011;60395;52.020;113.548;2023-10-19T13:19:03;10.15;;;4.57;;
72404;SDS011;60395;52.020;113.548;2023-10-19T13:22:14;9.55;;;4.55;;
72404;SDS011;60395;52.020;113.548;2023-10-19T13:25:19;11.30;;;5.35;;
72404;SDS011;60395;52.020;113.548;2023-10-19T13:28:41;11.88;;;5.05;;
72404;SDS011;60395;52.020;113.548;2023-10-19T13:31:45;15.23;;;4.90;;
72404;SDS011;60395;52.020;113.548;2023-10-19T13:34:51;23.38;;;11.45;;
72404;SDS011;60395;52.020;113.548;2023-10-19T13:37:55;16.98;;;6.43;;
72404;SDS011;60395;52.020;113.548;2023-10-19T13:40:58;12.18;;;4.68;;
72404;SDS011;60395;52.020;113.548;2023-10-19T13:44:05;7.25;;;3.72;;
72404;SDS011;60395;52.020;113.548;2023-10-19T13:47:10;8.90;;;3.33;;
72404;SDS011;60395;52.020;113.548;2023-10-19T13:50:19;8.05;;;3.13;;
72404;SDS011;60395;52.020;113.548;2023-10-19T13:53:26;10.88;;;2.90;;
72404;SDS011;60395;52.020;113.548;2023-10-19T13:56:30;6.97;;;2.83;;
72404;SDS011;60395;52.020;113.548;2023-10-19T13:59:33;6.57;;;2.92;;
72404;SDS011;60395;52.020;113.548;2023-10-19T14:02:37;6.47;;;3.10;;
72404;SDS011;60395;52.020;113.548;2023-10-19T14:05:42;7.03;;;3.00;;
72404;SDS011;60395;52.020;113.548;2023-10-19T14:08:50;9.65;;;3.55;;
72404;SDS011;60395;52.020;113.548;2023-10-19T14:11:54;6.32;;;2.78;;
72404;SDS011;60395;52.020;113.548;2023-10-19T14:14:58;11.40;;;4.05;;
72404;SDS011;60395;52.020;113.548;2023-10-19T14:18:02;5.47;;;2.25;;
72404;SDS011;60395;52.020;113.548;2023-10-19T14:21:15;6.45;;;2.95;;
72404;SDS011;60395;52.020;113.548;2023-10-19T14:24:21;23.02;;;6.88;;
72404;SDS011;60395;52.020;113.548;2023-10-19T14:27:24;11.88;;;4.95;;
72404;SDS011;60395;52.020;113.548;2023-10-19T14:30:28;9.23;;;4.25;;
72404;SDS011;60395;52.020;113.548;2023-10-19T14:33:31;13.10;;;3.95;;
72404;SDS011;60395;52.020;113.548;2023-10-19T14:36:40;9.23;;;3.95;;
72404;SDS011;60395;52.020;113.548;2023-10-19T14:39:44;10.35;;;4.88;;
72404;SDS011;60395;52.020;113.548;2023-10-19T14:42:47;12.93;;;4.93;;
72404;SDS011;60395;52.020;113.548;2023-10-19T14:45:55;12.55;;;5.10;;
72404;SDS011;60395;52.020;113.548;2023-10-19T14:49:01;13.40;;;4.72;;
72404;SDS011;60395;52.020;113.548;2023-10-19T14:52:05;14.02;;;4.90;;
72404;SDS011;60395;52.020;113.548;2023-10-19T14:55:09;17.40;;;5.10;;
72404;SDS011;60395;52.020;113.548;2023-10-19T14:58:13;13.25;;;4.65;;
72404;SDS011;60395;52.020;113.548;2023-10-19T15:01:25;16.42;;;4.88;;
72404;SDS011;60395;52.020;113.548;2023-10-19T15:04:29;11.25;;;4.32;;
72404;SDS011;60395;52.020;113.548;2023-10-19T15:07:33;17.35;;;6.68;;
72404;SDS011;60395;52.020;113.548;2023-10-19T15:10:40;29.65;;;9.68;;
72404;SDS011;60395;52.020;113.548;2023-10-19T15:13:44;15.60;;;5.25;;
72404;SDS011;60395;52.020;113.548;2023-10-19T15:16:48;23.00;;;6.70;;
72404;SDS011;60395;52.020;113.548;2023-10-19T15:19:52;26.90;;;10.93;;
72404;SDS011;60395;52.020;113.548;2023-10-19T15:22:55;33.58;;;12.88;;
72404;SDS011;60395;52.020;113.548;2023-10-19T15:25:59;20.63;;;7.20;;
72404;SDS011;60395;52.020;113.548;2023-10-19T15:29:03;16.02;;;4.50;;
72404;SDS011;60395;52.020;113.548;2023-10-19T15:32:07;7.28;;;3.20;;
72404;SDS011;60395;52.020;113.548;2023-10-19T15:35:14;8.88;;;3.30;;
72404;SDS011;60395;52.020;113.548;2023-10-19T15:38:20;8.00;;;2.75;;
72404;SDS011;60395;52.020;113.548;2023-10-19T15:41:24;6.88;;;2.60;;
72404;SDS011;60395;52.020;113.548;2023-10-19T15:44:28;5.28;;;2.30;;
72404;SDS011;60395;52.020;113.548;2023-10-19T15:47:33;6.65;;;2.30;;
72404;SDS011;60395;52.020;113.548;2023-10-19T15:50:38;5.53;;;2.40;;
72404;SDS011;60395;52.020;113.548;2023-10-19T15:53:43;5.88;;;2.10;;
72404;SDS011;60395;52.020;113.548;2023-10-19T15:56:47;6.68;;;2.28;;
72404;SDS011;60395;52.020;113.548;2023-10-19T15:59:50;4.82;;;1.95;;
72404;SDS011;60395;52.020;113.548;2023-10-19T16:02:54;3.67;;;1.88;;
72404;SDS011;60395;52.020;113.548;2023-10-19T16:05:58;5.88;;;1.95;;
72404;SDS011;60395;52.020;113.548;2023-10-19T16:09:02;5.15;;;1.92;;
72404;SDS011;60395;52.020;113.548;2023-10-19T16:12:07;5.32;;;1.90;;
72404;SDS011;60395;52.020;113.548;2023-10-19T16:15:11;5.30;;;1.75;;
72404;SDS011;60395;52.020;113.548;2023-10-19T16:18:15;4.43;;;1.60;;
72404;SDS011;60395;52.020;113.548;2023-10-19T16:21:18;4.53;;;1.60;;
72404;SDS011;60395;52.020;113.548;2023-10-19T16:24:22;4.15;;;1.65;;
72404;SDS011;60395;52.020;113.548;2023-10-19T16:27:29;7.05;;;2.03;;
72404;SDS011;60395;52.020;113.548;2023-10-19T16:30:33;2.90;;;1.30;;
72404;SDS011;60395;52.020;113.548;2023-10-19T16:33:37;5.05;;;1.42;;
72404;SDS011;60395;52.020;113.548;2023-10-19T16:36:43;5.55;;;1.70;;
72404;SDS011;60395;52.020;113.548;2023-10-19T16:39:47;5.80;;;2.20;;
72404;SDS011;60395;52.020;113.548;2023-10-19T16:42:50;4.68;;;2.30;;
72404;SDS011;60395;52.020;113.548;2023-10-19T16:45:54;8.90;;;2.78;;
72404;SDS011;60395;52.020;113.548;2023-10-19T16:48:57;7.27;;;2.70;;
72404;SDS011;60395;52.020;113.548;2023-10-19T16:52:01;5.97;;;2.22;;
72404;SDS011;60395;52.020;113.548;2023-10-19T16:55:05;5.63;;;2.17;;
72404;SDS011;60395;52.020;113.548;2023-10-19T17:01:13;5.45;;;2.10;;
72404;SDS011;60395;52.020;113.548;2023-10-19T17:04:17;5.87;;;2.03;;
72404;SDS011;60395;52.020;113.548;2023-10-19T17:07:20;6.47;;;1.90;;
72404;SDS011;60395;52.020;113.548;2023-10-19T17:10:23;4.28;;;1.50;;
72404;SDS011;60395;52.020;113.548;2023-10-19T17:13:30;3.95;;;1.60;;
72404;SDS011;60395;52.020;113.548;2023-10-19T17:16:34;5.75;;;2.15;;
72404;SDS011;60395;52.020;113.548;2023-10-19T17:19:38;6.72;;;1.88;;
72404;SDS011;60395;52.020;113.548;2023-10-19T17:22:41;3.47;;;1.60;;
72404;SDS011;60395;52.020;113.548;2023-10-19T17:25:46;8.20;;;2.30;;
72404;SDS011;60395;52.020;113.548;2023-10-19T17:28:49;3.88;;;1.65;;
72404;SDS011;60395;52.020;113.548;2023-10-19T17:31:55;3.63;;;1.60;;
72404;SDS011;60395;52.020;113.548;2023-10-19T17:34:59;5.97;;;1.67;;
72404;SDS011;60395;52.020;113.548;2023-10-19T17:38:03;2.23;;;1.10;;
72404;SDS011;60395;52.020;113.548;2023-10-19T17:44:14;3.28;;;1.30;;
72404;SDS011;60395;52.020;113.548;2023-10-19T17:47:17;4.18;;;1.48;;
72404;SDS011;60395;52.020;113.548;2023-10-19T17:50:21;2.67;;;1.10;;
72404;SDS011;60395;52.020;113.548;2023-10-19T17:53:26;2.45;;;1.10;;
72404;SDS011;60395;52.020;113.548;2023-10-19T17:56:30;1.93;;;1.10;;
72404;SDS011;60395;52.020;113.548;2023-10-19T17:59:34;2.65;;;1.30;;
72404;SDS011;60395;52.020;113.548;2023-10-19T18:02:38;2.90;;;1.23;;
72404;SDS011;60395;52.020;113.548;2023-10-19T18:05:45;3.60;;;1.63;;
72404;SDS011;60395;52.020;113.548;2023-10-19T18:08:50;6.35;;;2.72;;
72404;SDS011;60395;52.020;113.548;2023-10-19T18:11:54;24.13;;;7.30;;
72404;SDS011;60395;52.020;113.548;2023-10-19T18:14:58;13.88;;;6.10;;
72404;SDS011;60395;52.020;113.548;2023-10-19T18:18:04;9.95;;;4.32;;
72404;SDS011;60395;52.020;113.548;2023-10-19T18:21:09;9.70;;;4.18;;
72404;SDS011;60395;52.020;113.548;2023-10-19T18:24:16;5.18;;;2.63;;
72404;SDS011;60395;52.020;113.548;2023-10-19T18:27:19;2.80;;;1.80;;
72404;SDS011;60395;52.020;113.548;2023-10-19T18:30:25;23.42;;;11.07;;
72404;SDS011;60395;52.020;113.548;2023-10-19T18:33:28;25.17;;;14.25;;
72404;SDS011;60395;52.020;113.548;2023-10-19T18:36:33;21.17;;;10.38;;
72404;SDS011;60395;52.020;113.548;2023-10-19T18:39:37;9.27;;;4.88;;
72404;SDS011;60395;52.020;113.548;2023-10-19T18:42:40;9.13;;;3.25;;
72404;SDS011;60395;52.020;113.548;2023-10-19T18:45:44;8.93;;;2.42;;
72404;SDS011;60395;52.020;113.548;2023-10-19T18:48:48;2.83;;;1.70;;
72404;SDS011;60395;52.020;113.548;2023-10-19T18:51:51;4.60;;;1.83;;